createdAt,value
2018-06-29T00:24:03.595Z,0
2018-06-29T08:09:05.356Z,77376
2018-06-29T08:10:06.088Z,74784
2018-06-29T08:11:06.831Z,77632
2018-06-29T08:12:07.578Z,78688
2018-06-29T08:13:08.323Z,78240
2018-06-29T08:14:09.053Z,77152
2018-06-29T08:15:09.785Z,77888
2018-06-29T08:16:10.518Z,77920
2018-06-29T08:17:11.254Z,77152
2018-06-29T08:18:11.996Z,75904
2018-06-29T08:19:12.744Z,78144
2018-06-29T08:20:13.474Z,76768
2018-06-29T08:21:14.207Z,77248
2018-06-29T08:22:14.939Z,80096
2018-06-29T08:23:15.671Z,78272
2018-06-29T08:24:16.443Z,79040
2018-06-29T08:25:17.161Z,78112
2018-06-29T08:26:17.893Z,74816
2018-06-29T08:27:18.628Z,75840
2018-06-29T08:28:19.375Z,76128
2018-06-29T08:29:20.107Z,79040
2018-06-29T08:30:20.857Z,80480
2018-06-29T08:31:21.594Z,82208
2018-06-29T08:32:22.335Z,81440
2018-06-29T08:33:23.072Z,81152
2018-06-29T08:34:23.826Z,81760
2018-06-29T08:35:24.567Z,81408
2018-06-29T08:36:25.306Z,82592
2018-06-29T08:37:26.045Z,79904
2018-06-29T08:38:26.786Z,83904
2018-06-29T08:39:27.530Z,72928
2018-06-29T08:40:28.274Z,41056
2018-06-29T08:41:29.018Z,19392
2018-06-29T08:42:29.766Z,14720
2018-06-29T08:43:30.519Z,13116
2018-06-29T08:44:31.263Z,12196
2018-06-29T08:45:32.004Z,11696
2018-06-29T08:46:32.749Z,11212
2018-06-29T08:47:33.487Z,10868
2018-06-29T08:48:34.227Z,10612
2018-06-29T08:49:34.974Z,10464
2018-06-29T08:50:35.708Z,10308
2018-06-29T08:51:36.452Z,10312
2018-06-29T08:52:37.193Z,10308
2018-06-29T08:53:37.934Z,10380
2018-06-29T08:54:38.690Z,10500
2018-06-29T08:55:39.446Z,10672
2018-06-29T08:56:40.201Z,10916
2018-06-29T08:57:40.958Z,11244
2018-06-29T08:58:41.719Z,11676
2018-06-29T08:59:42.453Z,12256
2018-06-29T09:00:43.196Z,13012
2018-06-29T09:01:43.938Z,14208
2018-06-29T09:02:44.679Z,16412
2018-06-29T09:03:45.438Z,27968
2018-06-29T09:04:46.179Z,59232
2018-06-29T09:05:46.923Z,79136
2018-06-29T09:06:47.664Z,86080
2018-06-29T09:07:48.407Z,85312
2018-06-29T09:08:49.146Z,86752
2018-06-29T09:09:49.883Z,93632
2018-06-29T09:10:50.633Z,92928
2018-06-29T09:11:51.370Z,92960
2018-06-29T09:12:52.108Z,94432
2018-06-29T09:13:52.845Z,94112
2018-06-29T09:14:53.587Z,94848
2018-06-29T09:15:54.326Z,93376
2018-06-29T09:16:55.065Z,94112
2018-06-29T09:17:55.802Z,95840
2018-06-29T09:18:56.550Z,89696
2018-06-29T09:19:57.295Z,87296
2018-06-29T09:20:58.052Z,90560
2018-06-29T09:21:58.790Z,90208
2018-06-29T09:22:59.541Z,88800
2018-06-29T09:24:00.281Z,88864
2018-06-29T09:25:01.018Z,98112
2018-06-29T09:26:01.759Z,98944
2018-06-29T09:27:02.497Z,91040
2018-06-29T09:28:03.240Z,96576
2018-06-29T09:29:03.980Z,89792
2018-06-29T09:30:04.740Z,95648
2018-06-29T09:31:05.477Z,89728
2018-06-29T09:32:06.218Z,86368
2018-06-29T09:33:06.960Z,94240
2018-06-29T09:34:07.703Z,86528
2018-06-29T09:35:08.445Z,86944
2018-06-29T09:36:09.187Z,93888
2018-06-29T09:37:09.930Z,93568
2018-06-29T09:38:10.672Z,89120
2018-06-29T09:39:11.424Z,93856
2018-06-29T09:40:12.161Z,93824
2018-06-29T09:41:12.917Z,95584
2018-06-29T09:42:13.657Z,90688
2018-06-29T09:43:14.408Z,95264
2018-06-29T09:44:15.149Z,98560
2018-06-29T09:45:15.901Z,94912
2018-06-29T09:46:16.642Z,96768
2018-06-29T09:47:17.382Z,97536
2018-06-29T09:48:18.121Z,93120
2018-06-29T09:49:18.859Z,93472
2018-06-29T09:50:19.603Z,93920
2018-06-29T09:51:20.352Z,96352
2018-06-29T09:52:21.090Z,89824
2018-06-29T09:53:21.829Z,90112
2018-06-29T09:54:22.567Z,94848
2018-06-29T09:55:23.311Z,94016
2018-06-29T09:56:24.046Z,88608
2018-06-29T09:57:24.785Z,88864
2018-06-29T09:58:25.524Z,90848
2018-06-29T09:59:26.264Z,93472
2018-06-29T10:00:27.006Z,102272
2018-06-29T10:01:27.816Z,99456
2018-06-29T10:02:31.690Z,102464
2018-06-29T10:03:29.252Z,105024
2018-06-29T10:04:29.968Z,101440
2018-06-29T10:05:30.708Z,110048
2018-06-29T10:06:31.519Z,108320
2018-06-29T10:07:32.189Z,95392
2018-06-29T10:08:32.929Z,97056
2018-06-29T10:09:33.670Z,98176
2018-06-29T10:10:34.408Z,99808
2018-06-29T10:11:35.149Z,96064
2018-06-29T10:12:35.904Z,98272
2018-06-29T10:13:36.641Z,99808
2018-06-29T10:14:37.383Z,100256
2018-06-29T10:15:38.124Z,97344
2018-06-29T10:16:38.866Z,95264
2018-06-29T10:17:39.606Z,98624
2018-06-29T10:18:40.359Z,97216
2018-06-29T10:19:41.193Z,92896
2018-06-29T10:20:41.840Z,93120
2018-06-29T10:21:42.580Z,93120
2018-06-29T10:22:43.320Z,86752
2018-06-29T10:23:44.074Z,88096
2018-06-29T10:24:44.813Z,84192
2018-06-29T10:25:45.566Z,79616
2018-06-29T10:26:46.310Z,90656
2018-06-29T10:27:47.050Z,80032
2018-06-29T10:28:47.800Z,83968
2018-06-29T10:29:48.545Z,91008
2018-06-29T10:30:49.336Z,84832
2018-06-29T10:31:50.038Z,92064
2018-06-29T10:32:50.779Z,91968
2018-06-29T10:33:51.534Z,95968
2018-06-29T10:34:52.275Z,101600
2018-06-29T10:35:53.040Z,91712
2018-06-29T10:36:53.834Z,91840
2018-06-29T10:37:54.514Z,98720
2018-06-29T10:38:55.340Z,94016
2018-06-29T10:39:56.022Z,97920
2018-06-29T10:40:56.779Z,104000
2018-06-29T10:41:57.556Z,100832
2018-06-29T10:42:58.275Z,101056
2018-06-29T10:43:59.019Z,103200
2018-06-29T10:44:59.810Z,102240
2018-06-29T10:46:00.522Z,98272
2018-06-29T10:47:01.278Z,98144
2018-06-29T10:48:02.018Z,94304
2018-06-29T10:49:02.773Z,96704
2018-06-29T10:50:03.528Z,99264
2018-06-29T10:51:04.283Z,100032
2018-06-29T10:52:05.024Z,95904
2018-06-29T10:53:05.778Z,102016
2018-06-29T10:54:06.517Z,95744
2018-06-29T10:55:07.263Z,96416
2018-06-29T10:56:08.016Z,107552
2018-06-29T10:57:08.757Z,94144
2018-06-29T10:58:09.498Z,96896
2018-06-29T10:59:10.241Z,105152
2018-06-29T11:00:10.983Z,85408
2018-06-29T11:01:11.724Z,84096
2018-06-29T11:02:12.465Z,98112
2018-06-29T11:03:13.219Z,90080
2018-06-29T11:04:13.959Z,90144
2018-06-29T11:05:14.703Z,103136
2018-06-29T11:06:15.444Z,95360
2018-06-29T11:07:16.200Z,95424
2018-06-29T11:08:16.943Z,94048
2018-06-29T11:09:17.698Z,91552
2018-06-29T11:10:18.440Z,103360
2018-06-29T11:11:19.180Z,102272
2018-06-29T11:12:19.922Z,98016
2018-06-29T11:13:20.665Z,101504
2018-06-29T11:14:21.406Z,100000
2018-06-29T11:15:22.148Z,107840
2018-06-29T11:16:22.902Z,103488
2018-06-29T11:17:23.647Z,94240
2018-06-29T11:18:24.399Z,101920
2018-06-29T11:19:25.157Z,102656
2018-06-29T11:20:25.910Z,97952
2018-06-29T11:21:26.652Z,100768
2018-06-29T11:22:27.394Z,95296
2018-06-29T11:23:28.135Z,95648
2018-06-29T11:24:28.876Z,100576
2018-06-29T11:25:29.616Z,98912
2018-06-29T11:26:30.389Z,100224
2018-06-29T11:27:31.101Z,102816
2018-06-29T11:28:31.844Z,101280
2018-06-29T11:29:32.599Z,99040
2018-06-29T11:30:33.356Z,100096
2018-06-29T11:31:34.099Z,106208
2018-06-29T11:32:34.840Z,106304
2018-06-29T11:33:35.599Z,100512
2018-06-29T11:34:36.342Z,98976
2018-06-29T11:35:37.083Z,98464
2018-06-29T11:36:37.824Z,98400
2018-06-29T11:37:38.562Z,95968
2018-06-29T11:38:39.304Z,97312
2018-06-29T11:39:40.045Z,97824
2018-06-29T11:40:40.798Z,95680
2018-06-29T11:41:41.537Z,96640
2018-06-29T11:42:42.292Z,94048
2018-06-29T11:43:43.046Z,93696
2018-06-29T11:44:43.789Z,99136
2018-06-29T11:45:44.529Z,94336
2018-06-29T11:46:45.268Z,88448
2018-06-29T11:47:46.009Z,94656
2018-06-29T11:48:46.811Z,97888
2018-06-29T11:49:47.505Z,94112
2018-06-29T11:50:48.245Z,96992
2018-06-29T11:51:48.987Z,95136
2018-06-29T11:52:49.727Z,97408
2018-06-29T11:53:50.481Z,99872
2018-06-29T11:54:51.219Z,96608
2018-06-29T11:55:51.959Z,93696
2018-06-29T11:56:52.703Z,89600
2018-06-29T11:57:53.439Z,89600
2018-06-29T11:58:54.182Z,91584
2018-06-29T11:59:54.926Z,89760
2018-06-29T12:00:55.676Z,89312
2018-06-29T12:01:56.415Z,86144
2018-06-29T12:02:57.157Z,86240
2018-06-29T12:03:57.899Z,90592
2018-06-29T12:04:58.640Z,89472
2018-06-29T12:05:59.392Z,88640
2018-06-29T12:07:00.134Z,92896
2018-06-29T12:08:00.875Z,96128
2018-06-29T12:09:01.616Z,97248
2018-06-29T12:10:02.371Z,97280
2018-06-29T12:11:03.113Z,98144
2018-06-29T12:12:03.866Z,97664
2018-06-29T12:13:04.606Z,95808
2018-06-29T12:14:05.347Z,96384
2018-06-29T12:15:06.088Z,98304
2018-06-29T12:16:06.828Z,92128
2018-06-29T12:17:07.584Z,89344
2018-06-29T12:18:08.327Z,94816
2018-06-29T12:19:09.068Z,91488
2018-06-29T12:20:09.810Z,91296
2018-06-29T12:21:10.562Z,92096
2018-06-29T12:22:11.303Z,93632
2018-06-29T12:23:12.046Z,96064
2018-06-29T12:24:12.783Z,99168
2018-06-29T12:25:13.523Z,93408
2018-06-29T12:26:14.264Z,95712
2018-06-29T12:27:15.006Z,95808
2018-06-29T12:28:15.759Z,94176
2018-06-29T12:29:16.501Z,93696
2018-06-29T12:30:17.259Z,94144
2018-06-29T12:31:17.999Z,99136
2018-06-29T12:32:18.743Z,97664
2018-06-29T12:33:19.499Z,95296
2018-06-29T12:34:20.250Z,94624
2018-06-29T12:35:20.992Z,93536
2018-06-29T12:36:21.887Z,89248
2018-06-29T12:37:22.476Z,85632
2018-06-29T12:38:23.229Z,87840
2018-06-29T12:39:23.968Z,82592
2018-06-29T12:40:24.711Z,82080
2018-06-29T12:41:25.450Z,88928
2018-06-29T12:42:26.190Z,86688
2018-06-29T12:43:26.932Z,91296
2018-06-29T12:44:27.670Z,90624
2018-06-29T12:45:28.411Z,87584
2018-06-29T12:46:29.166Z,91552
2018-06-29T12:47:29.918Z,93184
2018-06-29T12:48:30.673Z,90368
2018-06-29T12:49:31.415Z,93312
2018-06-29T12:50:32.172Z,94496
2018-06-29T12:51:32.985Z,87808
2018-06-29T12:52:33.653Z,90976
2018-06-29T12:53:34.392Z,93504
2018-06-29T12:54:35.194Z,89920
2018-06-29T12:55:35.874Z,90624
2018-06-29T12:56:36.613Z,87232
2018-06-29T12:57:37.354Z,91328
2018-06-29T12:58:38.150Z,94432
2018-06-29T12:59:38.840Z,85120
2018-06-29T13:00:39.575Z,88352
2018-06-29T13:01:40.316Z,91936
2018-06-29T13:02:41.055Z,85952
2018-06-29T13:03:41.808Z,84512
2018-06-29T13:04:42.569Z,89888
2018-06-29T13:05:43.361Z,90304
2018-06-29T13:06:44.029Z,84096
2018-06-29T13:07:44.771Z,95904
2018-06-29T13:08:45.510Z,97792
2018-06-29T13:09:46.250Z,82720
2018-06-29T13:10:46.993Z,90144
2018-06-29T13:11:47.734Z,95776
2018-06-29T13:12:48.486Z,84192
2018-06-29T13:13:49.228Z,82752
2018-06-29T13:14:49.983Z,87424
2018-06-29T13:15:50.733Z,89056
2018-06-29T13:16:51.473Z,85472
2018-06-29T13:17:52.214Z,81472
2018-06-29T13:18:52.953Z,87488
2018-06-29T13:19:53.693Z,89504
2018-06-29T13:20:54.434Z,80608
2018-06-29T13:21:55.250Z,85152
2018-06-29T13:22:55.930Z,88000
2018-06-29T13:23:56.670Z,83776
2018-06-29T13:24:57.477Z,82208
2018-06-29T13:25:58.154Z,86656
2018-06-29T13:26:58.893Z,84224
2018-06-29T13:27:59.647Z,83680
2018-06-29T13:29:00.389Z,87008
2018-06-29T13:30:01.127Z,84896
2018-06-29T13:31:01.867Z,84320
2018-06-29T13:32:02.607Z,86848
2018-06-29T13:33:03.346Z,83360
2018-06-29T13:34:04.084Z,81568
2018-06-29T13:35:04.825Z,87008
2018-06-29T13:36:05.574Z,85152
2018-06-29T13:37:06.306Z,84064
2018-06-29T13:38:07.047Z,85152
2018-06-29T13:39:07.787Z,83712
2018-06-29T13:40:08.529Z,83936
2018-06-29T13:41:09.272Z,84096
2018-06-29T13:42:10.009Z,79840
2018-06-29T13:43:10.750Z,87712
2018-06-29T13:44:11.491Z,79072
2018-06-29T13:45:12.230Z,81088
2018-06-29T13:46:12.968Z,80000
2018-06-29T13:47:13.708Z,77760
2018-06-29T13:48:14.448Z,83904
2018-06-29T13:49:15.204Z,77280
2018-06-29T13:50:15.943Z,77472
2018-06-29T13:51:16.680Z,79520
2018-06-29T13:52:17.420Z,75648
2018-06-29T13:53:18.160Z,77824
2018-06-29T13:54:18.898Z,81568
2018-06-29T13:55:19.652Z,77504
2018-06-29T13:56:20.393Z,80640
2018-06-29T13:57:21.131Z,82848
2018-06-29T13:58:21.870Z,82208
2018-06-29T13:59:22.609Z,82656
2018-06-29T14:00:23.365Z,80416
2018-06-29T14:01:24.102Z,87808
2018-06-29T14:02:24.872Z,83776
2018-06-29T14:03:25.582Z,80800
2018-06-29T14:04:26.322Z,83712
2018-06-29T14:05:27.061Z,79968
2018-06-29T14:06:27.802Z,78368
2018-06-29T14:07:28.556Z,77952
2018-06-29T14:08:29.295Z,77056
2018-06-29T14:09:30.034Z,76480
2018-06-29T14:10:30.772Z,75232
2018-06-29T14:11:31.511Z,77792
2018-06-29T14:12:32.262Z,72256
2018-06-29T14:13:33.003Z,71552
2018-06-29T14:14:33.742Z,67328
2018-06-29T14:15:34.495Z,62016
2018-06-29T14:16:35.233Z,62880
2018-06-29T14:17:35.986Z,60768
2018-06-29T14:18:36.727Z,60832
2018-06-29T14:19:37.466Z,65536
2018-06-29T14:20:38.267Z,67232
2018-06-29T14:21:38.972Z,69024
2018-06-29T14:22:39.712Z,70912
2018-06-29T14:23:40.450Z,72992
2018-06-29T14:24:41.189Z,73856
2018-06-29T14:25:41.930Z,74144
2018-06-29T14:27:31.342Z,72256
2018-06-29T14:28:32.083Z,72384
2018-06-29T14:29:32.825Z,70624
2018-06-29T14:30:33.561Z,68768
2018-06-29T14:31:34.302Z,70176
2018-06-29T14:32:35.042Z,68736
2018-06-29T14:33:35.794Z,67040
2018-06-29T14:34:36.553Z,66720
2018-06-29T14:35:37.279Z,64832
2018-06-29T14:36:38.031Z,67488
2018-06-29T14:37:38.783Z,70400
2018-06-29T14:38:39.523Z,68704
2018-06-29T14:39:40.261Z,70912
2018-06-29T14:40:40.999Z,65088
2018-06-29T14:41:41.752Z,61824
2018-06-29T14:42:42.510Z,59808
2018-06-29T14:43:43.247Z,62880
2018-06-29T14:44:43.998Z,64992
2018-06-29T14:45:44.735Z,63392
2018-06-29T14:46:45.487Z,58976
2018-06-29T14:47:46.224Z,60608
2018-06-29T14:48:46.965Z,63712
2018-06-29T14:49:47.701Z,63808
2018-06-29T14:50:48.440Z,64256
2018-06-29T14:51:49.179Z,62848
2018-06-29T14:52:49.918Z,61888
2018-06-29T14:53:50.657Z,60192
2018-06-29T14:54:51.395Z,60384
2018-06-29T14:55:52.133Z,59552
2018-06-29T14:56:52.884Z,61728
2018-06-29T14:57:53.637Z,59360
2018-06-29T14:58:54.377Z,58912
2018-06-29T14:59:55.113Z,54592
2018-06-29T15:00:55.851Z,43168
2018-06-29T15:01:56.595Z,32416
2018-06-29T15:02:57.371Z,19680
2018-06-29T15:03:58.092Z,9836
2018-06-29T15:04:58.832Z,6352
2018-06-29T15:05:59.577Z,5772
2018-06-29T15:07:00.315Z,5436
2018-06-29T15:08:01.071Z,5212
2018-06-29T15:09:01.809Z,5032
2018-06-29T15:10:02.546Z,4868
2018-06-29T15:11:03.297Z,4720
2018-06-29T15:12:04.034Z,4616
2018-06-29T15:13:04.772Z,4528
2018-06-29T15:14:05.507Z,4460
2018-06-29T15:15:06.243Z,4384
2018-06-29T15:16:06.978Z,4332
2018-06-29T15:17:07.719Z,4256
2018-06-29T15:18:08.470Z,4200
2018-06-29T15:19:09.206Z,4148
2018-06-29T15:20:09.943Z,4104
2018-06-29T15:21:10.683Z,4068
2018-06-29T15:22:11.421Z,4040
2018-06-29T15:23:12.157Z,4020
2018-06-29T15:24:12.894Z,4016
2018-06-29T15:25:13.641Z,4000
2018-06-29T15:26:14.381Z,4000
2018-06-29T15:28:16.904Z,3980
2018-06-29T15:29:17.640Z,3960
2018-06-29T15:30:18.377Z,3944
2018-06-29T15:31:19.192Z,3936
2018-06-29T15:32:19.854Z,3916
2018-06-29T15:33:20.589Z,3884
2018-06-29T15:34:21.329Z,3844
2018-06-29T15:35:22.072Z,3848
2018-06-29T15:36:22.806Z,3824
2018-06-29T15:37:23.542Z,3828
2018-06-29T15:38:24.274Z,3816
2018-06-29T15:39:25.009Z,3816
2018-06-29T15:40:25.756Z,3812
2018-06-29T15:41:26.490Z,3808
2018-06-29T15:42:27.221Z,3824
2018-06-29T15:43:27.953Z,3828
2018-06-29T15:44:28.699Z,3828
2018-06-29T15:45:29.436Z,3844
2018-06-29T15:46:30.180Z,3852
2018-06-29T15:47:30.912Z,3864
2018-06-29T15:48:31.655Z,3900
2018-06-29T15:49:32.387Z,3924
2018-06-29T15:50:33.130Z,3924
2018-06-29T15:51:33.861Z,3944
2018-06-29T15:52:34.590Z,3960
2018-06-29T15:53:35.317Z,3956
2018-06-29T15:54:36.046Z,3948
2018-06-29T15:55:36.787Z,3944
2018-06-29T15:56:37.515Z,3924
2018-06-29T15:57:38.247Z,3900
2018-06-29T15:58:38.984Z,3872
2018-06-29T15:59:39.714Z,3868
2018-06-29T16:00:40.458Z,3860
2018-06-29T16:01:41.187Z,3848
2018-06-29T16:02:41.914Z,3836
2018-06-29T16:03:42.641Z,3800
2018-06-29T16:04:43.370Z,3792
2018-06-29T16:05:44.098Z,3780
2018-06-29T16:06:44.895Z,3776
2018-06-29T16:07:45.553Z,3760
2018-06-29T16:08:46.283Z,3756
2018-06-29T16:09:47.012Z,3728
2018-06-29T16:10:47.743Z,3700
2018-06-29T16:11:48.481Z,3656
2018-06-29T16:12:49.212Z,3620
2018-06-29T16:13:49.938Z,3600
2018-06-29T16:14:50.678Z,3568
2018-06-29T16:15:51.409Z,3568
2018-06-29T16:16:52.138Z,3540
2018-06-29T16:17:52.864Z,3508
2018-06-29T16:18:53.597Z,3484
2018-06-29T16:19:54.325Z,3460
2018-06-29T16:20:55.054Z,3432
2018-06-29T16:21:55.784Z,3400
2018-06-29T16:22:56.510Z,3372
2018-06-29T16:23:57.253Z,3356
2018-06-29T16:24:57.980Z,3332
2018-06-29T16:25:58.710Z,3304
2018-06-29T16:26:59.438Z,3300
2018-06-29T16:28:00.180Z,3292
2018-06-29T16:29:00.926Z,3288
2018-06-29T16:30:46.316Z,3260
2018-06-29T16:31:47.047Z,3240
2018-06-29T16:32:47.774Z,3228
2018-06-29T16:33:48.504Z,3208
2018-06-29T16:35:33.879Z,3200
2018-06-29T16:36:34.607Z,3196
2018-06-29T16:37:35.355Z,3148
2018-06-29T16:38:36.070Z,3188
2018-06-29T16:39:36.797Z,3180
2018-06-29T16:40:37.524Z,3180
2018-06-29T16:41:38.263Z,3168
2018-06-29T16:42:38.990Z,3148
2018-06-29T16:43:39.731Z,3136
2018-06-29T16:44:40.472Z,3132
2018-06-29T16:45:41.200Z,3124
2018-06-29T16:46:41.926Z,3104
2018-06-29T16:47:42.653Z,3080
2018-06-29T16:48:43.379Z,3068
2018-06-29T16:49:44.105Z,3064
2018-06-29T16:50:44.872Z,3044
2018-06-29T16:51:45.560Z,3028
2018-06-29T16:52:46.287Z,3028
2018-06-29T16:53:47.026Z,3008
2018-06-29T16:54:47.752Z,2992
2018-06-29T16:55:48.481Z,2964
2018-06-29T16:57:33.855Z,2928
2018-06-29T16:58:34.584Z,2952
2018-06-29T16:59:35.322Z,2936
2018-06-29T17:00:36.049Z,2924
2018-06-29T17:01:36.777Z,2916
2018-06-29T17:02:37.509Z,2896
2018-06-29T17:03:38.235Z,2888
2018-06-29T17:04:38.964Z,2852
2018-06-29T17:05:39.768Z,2848
2018-06-29T17:06:40.434Z,2828
2018-06-29T17:07:41.164Z,2804
2018-06-29T17:08:41.887Z,2796
2018-06-29T17:09:42.613Z,2780
2018-06-29T17:10:43.339Z,2764
2018-06-29T17:11:44.068Z,2764
2018-06-29T17:12:44.809Z,2756
2018-06-29T17:13:45.534Z,2748
2018-06-29T17:14:46.274Z,2736
2018-06-29T17:15:47.004Z,2728
2018-06-29T17:16:47.743Z,2720
2018-06-29T17:17:48.468Z,2704
2018-06-29T17:18:49.378Z,2688
2018-06-29T17:19:50.009Z,2676
2018-06-29T17:20:50.697Z,2684
2018-06-29T17:21:51.422Z,2656
2018-06-29T17:22:52.168Z,2640
2018-06-29T17:23:52.887Z,2620
2018-06-29T17:24:53.620Z,2604
2018-06-29T17:25:54.354Z,2592
2018-06-29T17:26:55.093Z,2572
2018-06-29T17:27:55.805Z,2560
2018-06-29T17:28:56.612Z,2528
2018-06-29T17:29:57.253Z,2780
2018-06-29T17:30:57.978Z,2752
2018-06-29T17:31:58.704Z,2724
2018-06-29T17:32:59.430Z,2700
2018-06-29T17:34:00.225Z,2676
2018-06-29T17:35:00.881Z,2632
2018-06-29T17:36:01.607Z,2644
2018-06-29T17:37:02.332Z,2628
2018-06-29T17:38:03.058Z,2608
2018-06-29T17:39:03.781Z,2588
2018-06-29T17:40:04.506Z,2576
2018-06-29T17:41:05.235Z,2556
2018-06-29T17:42:05.956Z,2536
2018-06-29T17:43:06.681Z,2512
2018-06-29T17:44:07.419Z,2492
2018-06-29T17:45:08.142Z,2468
2018-06-29T17:46:08.882Z,2440
2018-06-29T17:47:09.606Z,2416
2018-06-29T17:48:10.331Z,2400
2018-06-29T17:49:11.058Z,2368
2018-06-29T17:50:11.784Z,2360
2018-06-29T17:51:12.509Z,2328
2018-06-29T17:52:13.247Z,2340
2018-06-29T17:53:13.970Z,2312
2018-06-29T17:54:14.696Z,2300
2018-06-29T17:55:15.463Z,2276
2018-06-29T17:56:16.195Z,2264
2018-06-29T17:57:16.897Z,2248
2018-06-29T17:58:17.629Z,2228
2018-06-29T17:59:18.345Z,2204
2018-06-29T18:00:19.072Z,2184
2018-06-29T18:01:19.807Z,2164
2018-06-29T18:02:20.531Z,2144
2018-06-29T18:03:21.253Z,2124
2018-06-29T18:04:22.013Z,2112
2018-06-29T18:05:22.733Z,2096
2018-06-29T18:06:23.443Z,2076
2018-06-29T18:07:24.169Z,2048
2018-06-29T18:08:24.892Z,2032
2018-06-29T18:09:25.622Z,2008
2018-06-29T18:10:26.346Z,1996
2018-06-29T18:11:27.070Z,1972
2018-06-29T18:12:27.793Z,1956
2018-06-29T18:13:28.518Z,1932
2018-06-29T18:14:29.245Z,1920
2018-06-29T18:15:29.984Z,1908
2018-06-29T18:16:30.713Z,1880
2018-06-29T18:17:31.461Z,1872
2018-06-29T18:18:32.183Z,1856
2018-06-29T18:19:32.908Z,1840
2018-06-29T18:20:33.635Z,1828
2018-06-29T18:21:34.356Z,1800
2018-06-29T18:22:35.084Z,1796
2018-06-29T18:23:35.818Z,1772
2018-06-29T18:24:36.541Z,1752
2018-06-29T18:25:37.267Z,1732
2018-06-29T18:26:37.989Z,1700
2018-06-29T18:27:38.711Z,1704
2018-06-29T18:28:39.436Z,1688
2018-06-29T18:29:40.251Z,1676
2018-06-29T18:30:40.903Z,1660
2018-06-29T18:31:41.626Z,1644
2018-06-29T18:32:42.350Z,1624
2018-06-29T18:33:43.075Z,1608
2018-06-29T18:34:43.814Z,1588
2018-06-29T18:35:44.550Z,1572
2018-06-29T18:36:45.334Z,1556
2018-06-29T18:37:46.014Z,1540
2018-06-29T18:38:46.754Z,1524
2018-06-29T18:39:47.486Z,1512
2018-06-29T18:40:48.210Z,1492
2018-06-29T18:41:48.949Z,1476
2018-06-29T18:42:49.678Z,1456
2018-06-29T18:43:50.398Z,1436
2018-06-29T18:44:51.135Z,1420
2018-06-29T18:45:51.858Z,1404
2018-06-29T18:46:52.582Z,1392
2018-06-29T18:47:53.304Z,1372
2018-06-29T18:48:54.089Z,1352
2018-06-29T18:49:54.754Z,1336
2018-06-29T18:50:55.477Z,1304
2018-06-29T18:51:56.200Z,1292
2018-06-29T18:52:56.923Z,1272
2018-06-29T18:53:57.647Z,1248
2018-06-29T18:54:58.371Z,1236
2018-06-29T18:55:59.109Z,1216
2018-06-29T18:56:59.833Z,1196
2018-06-29T18:58:00.557Z,1168
2018-06-29T18:59:01.281Z,1156
2018-06-29T19:00:02.009Z,1136
2018-06-29T19:01:02.744Z,1120
2018-06-29T19:02:03.466Z,1096
2018-06-29T19:03:04.190Z,1080
2018-06-29T19:04:04.914Z,1052
2018-06-29T19:05:05.638Z,1036
2018-06-29T19:06:06.362Z,1016
2018-06-29T19:07:07.083Z,992
2018-06-29T19:08:53.446Z,964
2018-06-29T19:09:54.169Z,940
2018-06-29T19:10:54.906Z,924
2018-06-29T19:11:55.642Z,904
2018-06-29T19:12:56.364Z,880
2018-06-29T19:13:57.098Z,864
2018-06-29T19:14:57.837Z,840
2018-06-29T19:15:58.559Z,820
2018-06-29T19:16:59.280Z,800
2018-06-29T19:18:00.010Z,784
2018-06-29T19:19:00.725Z,760
2018-06-29T19:20:01.490Z,740
2018-06-29T19:21:02.168Z,720
2018-06-29T19:22:02.890Z,700
2018-06-29T19:23:03.613Z,676
2018-06-29T19:24:04.338Z,656
2018-06-29T19:25:05.059Z,632
2018-06-29T19:26:05.785Z,616
2018-06-29T19:27:06.514Z,592
2018-06-29T19:28:07.236Z,572
2018-06-29T19:29:07.973Z,552
2018-06-29T19:30:08.695Z,532
2018-06-29T19:31:09.444Z,512
2018-06-29T19:32:10.168Z,492
2018-06-29T19:33:10.895Z,472
2018-06-29T19:34:11.610Z,456
2018-06-29T19:35:12.331Z,436
2018-06-29T19:36:13.051Z,416
2018-06-29T19:37:13.776Z,396
2018-06-29T19:39:04.183Z,368
2018-06-29T19:40:04.866Z,348
2018-06-29T19:41:05.590Z,328
2018-06-29T19:42:06.311Z,312
2018-06-29T19:43:07.033Z,300
2018-06-29T19:44:07.756Z,280
2018-06-29T19:45:08.492Z,264
2018-06-29T19:46:09.215Z,248
2018-06-29T19:47:09.946Z,236
2018-06-29T19:48:10.669Z,224
2018-06-29T19:49:11.388Z,208
2018-06-29T19:50:12.112Z,196
2018-06-29T19:51:12.836Z,180
2018-06-29T19:52:13.556Z,172
2018-06-29T19:53:14.277Z,160
2018-06-29T19:54:14.996Z,148
2018-06-29T19:55:15.719Z,136
2018-06-29T19:56:16.443Z,128
2018-06-29T19:57:17.169Z,116
2018-06-29T19:58:17.888Z,104
2018-06-29T19:59:18.627Z,100
2018-06-29T20:00:19.405Z,92
2018-06-29T20:01:20.123Z,84
2018-06-29T20:02:20.845Z,76
2018-06-29T20:03:21.562Z,68
2018-06-29T20:04:22.294Z,60
2018-06-29T20:05:23.014Z,60
2018-06-29T20:06:23.733Z,52
2018-06-29T20:07:24.464Z,44
2018-06-29T20:08:25.202Z,40
2018-06-29T20:09:25.925Z,40
2018-06-29T20:10:26.660Z,32
2018-06-29T20:11:27.449Z,32
2018-06-29T20:12:28.096Z,28
2018-06-29T20:13:28.830Z,24
2018-06-29T20:14:29.550Z,20
2018-06-29T20:15:30.273Z,20
2018-06-29T20:16:30.991Z,20
2018-06-29T20:17:31.715Z,16
2018-06-29T20:18:32.446Z,12
2018-06-29T20:19:33.169Z,12
2018-06-29T20:20:33.927Z,8
2018-06-29T20:21:34.626Z,8
2018-06-29T20:22:35.347Z,8
2018-06-29T20:23:36.065Z,8
2018-06-29T20:24:36.787Z,8
2018-06-29T20:25:37.507Z,4
2018-06-29T20:26:38.227Z,4
2018-06-29T20:27:38.944Z,4
2018-06-29T20:28:39.676Z,4
2018-06-29T20:29:40.396Z,4
2018-06-29T20:30:41.118Z,0
2018-06-29T20:31:41.852Z,4
2018-06-29T20:32:42.569Z,4
2018-06-29T20:33:43.286Z,0
2018-06-29T20:34:44.005Z,0
2018-06-29T20:35:44.740Z,4
2018-06-29T20:36:45.461Z,4
2018-06-29T20:37:46.182Z,0
2018-06-29T20:38:47.102Z,0
2018-06-29T20:39:47.635Z,0
2018-06-29T20:40:48.355Z,0
2018-06-29T20:41:49.077Z,0
2018-06-29T20:42:49.799Z,0
2018-06-29T20:43:50.560Z,0
2018-06-29T20:44:51.236Z,0
2018-06-29T20:45:51.961Z,0
2018-06-29T20:46:52.680Z,0
2018-06-29T20:47:53.404Z,0
2018-06-29T20:48:54.124Z,0
2018-06-29T20:49:54.842Z,0
2018-06-29T20:50:55.566Z,0
2018-06-29T20:51:56.287Z,0
2018-06-29T20:52:57.008Z,0
2018-06-29T20:53:57.753Z,0
2018-06-29T20:54:58.448Z,0
2018-06-29T20:56:00.194Z,0
2018-06-29T20:57:00.913Z,0
2018-06-29T20:58:02.646Z,0
2018-06-29T20:59:03.367Z,0
2018-06-29T21:00:04.088Z,0
2018-06-29T21:01:04.809Z,0
2018-06-29T21:02:05.530Z,0
2018-06-29T21:03:06.248Z,0
2018-06-29T21:04:06.985Z,0
2018-06-29T21:05:07.704Z,0
2018-06-29T21:06:08.427Z,0
2018-06-29T21:07:09.147Z,0
2018-06-29T21:08:09.867Z,0
2018-06-29T21:09:10.601Z,0
2018-06-29T21:10:11.323Z,0
2018-06-29T21:11:12.042Z,0
2018-06-29T21:12:12.761Z,0
2018-06-29T21:13:13.480Z,0
2018-06-29T21:14:14.202Z,0
2018-06-29T21:15:14.932Z,0
2018-06-29T21:16:15.655Z,0
2018-06-29T21:17:16.380Z,0
2018-06-29T21:18:17.105Z,0
2018-06-29T21:19:17.823Z,0
2018-06-29T21:20:18.556Z,0
2018-06-29T21:21:19.291Z,0
2018-06-29T21:22:20.013Z,0
2018-06-29T21:23:20.733Z,0
2018-06-29T21:24:21.455Z,0
2018-06-29T21:25:22.191Z,0
2018-06-29T21:26:22.915Z,0
2018-06-29T21:27:23.636Z,0
2018-06-29T21:28:24.375Z,0
2018-06-29T21:29:25.091Z,0
2018-06-29T21:30:25.809Z,0
2018-06-29T21:31:26.532Z,0
2018-06-29T21:32:27.267Z,0
2018-06-29T21:33:28.004Z,0
2018-06-29T21:34:28.736Z,0
2018-06-29T21:35:29.455Z,0
2018-06-29T21:36:30.174Z,0
2018-06-29T21:37:30.896Z,0